Fairbury, Illinois
Current Conditions -  °F | °C
As of 6:35 PM on Sunday 21 Dec 2014 (Local Time) from KPNT Reporting Station
Overcast Overcast  
Wind Chill: 28°   Ceiling: 2700
Heat Index: 35°   Visibility: 7mi
Dew Point: 32°   Wind: 9mph
Humidity: 90%   Direction: 120°ESE
Pressure: 30.06"   Gusts: NA
Location:  40.75°N, 88.51°W
Report Text: KPNT 220035Z AUTO 12008KT 7SM OVC027 02/00 A3006 RMK AO2 T00170002
Loading
Personal Weather Stations






























Interactive Weather Map New forecast layout! Learn more

10-Day Weather Forecast

Advertisements
Track Severe Weather on mobile